sensor_id;sensor_type;location;lat;lon;timestamp;P1;durP1;ratioP1;P2;durP2;ratioP2
31368;SDS011;18004;48.416;10.066;2023-04-30T00:01:43;2.60;;;1.90;;
31368;SDS011;18004;48.416;10.066;2023-04-30T00:04:09;3.38;;;2.10;;
31368;SDS011;18004;48.416;10.066;2023-04-30T00:06:35;2.20;;;1.90;;
31368;SDS011;18004;48.416;10.066;2023-04-30T00:09:00;4.13;;;2.72;;
31368;SDS011;18004;48.416;10.066;2023-04-30T00:11:27;2.42;;;1.85;;
31368;SDS011;18004;48.416;10.066;2023-04-30T00:13:53;2.55;;;1.95;;
31368;SDS011;18004;48.416;10.066;2023-04-30T00:16:21;2.65;;;2.15;;
31368;SDS011;18004;48.416;10.066;2023-04-30T00:18:46;3.38;;;2.00;;
31368;SDS011;18004;48.416;10.066;2023-04-30T00:21:12;4.32;;;2.15;;
31368;SDS011;18004;48.416;10.066;2023-04-30T00:23:38;2.65;;;2.00;;
31368;SDS011;18004;48.416;10.066;2023-04-30T00:26:04;2.22;;;1.70;;
31368;SDS011;18004;48.416;10.066;2023-04-30T00:28:29;3.03;;;1.75;;
31368;SDS011;18004;48.416;10.066;2023-04-30T00:30:55;2.78;;;2.13;;
31368;SDS011;18004;48.416;10.066;2023-04-30T00:33:21;4.80;;;2.17;;
31368;SDS011;18004;48.416;10.066;2023-04-30T00:35:47;3.05;;;1.98;;
31368;SDS011;18004;48.416;10.066;2023-04-30T00:38:12;3.22;;;1.83;;
31368;SDS011;18004;48.416;10.066;2023-04-30T00:40:39;3.22;;;2.20;;
31368;SDS011;18004;48.416;10.066;2023-04-30T00:43:06;2.47;;;1.90;;
31368;SDS011;18004;48.416;10.066;2023-04-30T00:45:32;4.35;;;2.70;;
31368;SDS011;18004;48.416;10.066;2023-04-30T00:47:57;5.68;;;2.10;;
31368;SDS011;18004;48.416;10.066;2023-04-30T00:50:23;2.47;;;2.15;;
31368;SDS011;18004;48.416;10.066;2023-04-30T00:52:49;4.68;;;2.83;;
31368;SDS011;18004;48.416;10.066;2023-04-30T00:55:15;4.93;;;2.50;;
31368;SDS011;18004;48.416;10.066;2023-04-30T00:57:42;3.85;;;2.10;;
31368;SDS011;18004;48.416;10.066;2023-04-30T01:00:08;3.97;;;2.15;;
31368;SDS011;18004;48.416;10.066;2023-04-30T01:02:38;2.90;;;2.38;;
31368;SDS011;18004;48.416;10.066;2023-04-30T01:05:05;3.38;;;2.45;;
31368;SDS011;18004;48.416;10.066;2023-04-30T01:07:32;4.13;;;2.65;;
31368;SDS011;18004;48.416;10.066;2023-04-30T01:09:59;4.20;;;2.78;;
31368;SDS011;18004;48.416;10.066;2023-04-30T01:17:40;4.68;;;1.92;;
31368;SDS011;18004;48.416;10.066;2023-04-30T01:20:16;5.50;;;2.88;;
31368;SDS011;18004;48.416;10.066;2023-04-30T01:25:34;5.72;;;3.05;;
31368;SDS011;18004;48.416;10.066;2023-04-30T01:28:04;4.35;;;2.47;;
31368;SDS011;18004;48.416;10.066;2023-04-30T01:30:31;5.85;;;2.80;;
31368;SDS011;18004;48.416;10.066;2023-04-30T01:32:58;3.67;;;2.40;;
31368;SDS011;18004;48.416;10.066;2023-04-30T01:35:28;3.80;;;2.47;;
31368;SDS011;18004;48.416;10.066;2023-04-30T01:43:11;4.18;;;2.65;;
31368;SDS011;18004;48.416;10.066;2023-04-30T01:51:07;4.25;;;2.95;;
31368;SDS011;18004;48.416;10.066;2023-04-30T01:53:54;5.55;;;2.67;;
31368;SDS011;18004;48.416;10.066;2023-04-30T01:56:27;4.03;;;2.38;;
31368;SDS011;18004;48.416;10.066;2023-04-30T01:59:00;3.28;;;2.65;;
31368;SDS011;18004;48.416;10.066;2023-04-30T02:01:27;4.47;;;2.85;;
31368;SDS011;18004;48.416;10.066;2023-04-30T02:03:55;2.75;;;2.50;;
31368;SDS011;18004;48.416;10.066;2023-04-30T02:06:21;4.72;;;2.78;;
31368;SDS011;18004;48.416;10.066;2023-04-30T02:08:55;3.47;;;2.80;;
31368;SDS011;18004;48.416;10.066;2023-04-30T02:11:27;9.40;;;3.08;;
31368;SDS011;18004;48.416;10.066;2023-04-30T02:13:53;4.38;;;2.95;;
31368;SDS011;18004;48.416;10.066;2023-04-30T02:16:19;4.00;;;2.97;;
31368;SDS011;18004;48.416;10.066;2023-04-30T02:18:45;3.45;;;2.47;;
31368;SDS011;18004;48.416;10.066;2023-04-30T02:21:12;4.50;;;3.35;;
31368;SDS011;18004;48.416;10.066;2023-04-30T02:23:38;3.80;;;2.83;;
31368;SDS011;18004;48.416;10.066;2023-04-30T02:26:04;5.07;;;3.45;;
31368;SDS011;18004;48.416;10.066;2023-04-30T02:28:30;6.10;;;3.45;;
31368;SDS011;18004;48.416;10.066;2023-04-30T02:30:57;3.35;;;2.78;;
31368;SDS011;18004;48.416;10.066;2023-04-30T02:33:23;5.57;;;3.25;;
31368;SDS011;18004;48.416;10.066;2023-04-30T02:35:49;4.65;;;3.30;;
31368;SDS011;18004;48.416;10.066;2023-04-30T02:38:15;4.13;;;2.83;;
31368;SDS011;18004;48.416;10.066;2023-04-30T02:40:40;5.40;;;2.53;;
31368;SDS011;18004;48.416;10.066;2023-04-30T02:43:07;7.55;;;4.03;;
31368;SDS011;18004;48.416;10.066;2023-04-30T02:45:32;8.68;;;3.08;;
31368;SDS011;18004;48.416;10.066;2023-04-30T02:47:58;4.60;;;3.63;;
31368;SDS011;18004;48.416;10.066;2023-04-30T02:50:24;4.88;;;3.22;;
31368;SDS011;18004;48.416;10.066;2023-04-30T02:52:50;5.75;;;3.80;;
31368;SDS011;18004;48.416;10.066;2023-04-30T02:55:16;3.53;;;3.15;;
31368;SDS011;18004;48.416;10.066;2023-04-30T02:57:42;4.00;;;2.58;;
31368;SDS011;18004;48.416;10.066;2023-04-30T03:00:07;5.70;;;3.33;;
31368;SDS011;18004;48.416;10.066;2023-04-30T03:02:34;5.20;;;3.10;;
31368;SDS011;18004;48.416;10.066;2023-04-30T03:04:59;6.07;;;3.50;;
31368;SDS011;18004;48.416;10.066;2023-04-30T03:07:25;8.00;;;3.65;;
31368;SDS011;18004;48.416;10.066;2023-04-30T03:09:51;3.33;;;2.30;;
31368;SDS011;18004;48.416;10.066;2023-04-30T03:12:16;5.35;;;3.05;;
31368;SDS011;18004;48.416;10.066;2023-04-30T03:14:42;5.80;;;3.90;;
31368;SDS011;18004;48.416;10.066;2023-04-30T03:17:08;4.57;;;3.42;;
31368;SDS011;18004;48.416;10.066;2023-04-30T03:19:33;5.47;;;3.65;;
31368;SDS011;18004;48.416;10.066;2023-04-30T03:21:59;6.75;;;3.83;;
31368;SDS011;18004;48.416;10.066;2023-04-30T03:24:25;6.13;;;3.15;;
31368;SDS011;18004;48.416;10.066;2023-04-30T03:26:51;6.00;;;3.55;;
31368;SDS011;18004;48.416;10.066;2023-04-30T03:29:17;7.18;;;3.95;;
31368;SDS011;18004;48.416;10.066;2023-04-30T03:31:42;7.28;;;4.05;;
31368;SDS011;18004;48.416;10.066;2023-04-30T03:34:08;4.95;;;3.00;;
31368;SDS011;18004;48.416;10.066;2023-04-30T03:36:34;4.95;;;3.40;;
31368;SDS011;18004;48.416;10.066;2023-04-30T03:39:00;8.32;;;3.97;;
31368;SDS011;18004;48.416;10.066;2023-04-30T03:41:26;5.18;;;3.95;;
31368;SDS011;18004;48.416;10.066;2023-04-30T03:43:52;6.28;;;3.92;;
31368;SDS011;18004;48.416;10.066;2023-04-30T03:46:18;8.57;;;3.78;;
31368;SDS011;18004;48.416;10.066;2023-04-30T03:48:44;5.35;;;4.20;;
31368;SDS011;18004;48.416;10.066;2023-04-30T03:51:10;9.93;;;4.25;;
31368;SDS011;18004;48.416;10.066;2023-04-30T03:53:36;8.23;;;4.28;;
31368;SDS011;18004;48.416;10.066;2023-04-30T03:56:01;7.30;;;3.90;;
31368;SDS011;18004;48.416;10.066;2023-04-30T03:58:28;7.40;;;4.65;;
31368;SDS011;18004;48.416;10.066;2023-04-30T04:00:54;6.35;;;3.85;;
31368;SDS011;18004;48.416;10.066;2023-04-30T04:03:20;6.25;;;3.85;;
31368;SDS011;18004;48.416;10.066;2023-04-30T04:05:46;7.78;;;3.67;;
31368;SDS011;18004;48.416;10.066;2023-04-30T04:08:12;5.65;;;4.10;;
31368;SDS011;18004;48.416;10.066;2023-04-30T04:10:38;5.85;;;4.45;;
31368;SDS011;18004;48.416;10.066;2023-04-30T04:13:05;4.72;;;3.70;;
31368;SDS011;18004;48.416;10.066;2023-04-30T04:15:31;8.30;;;4.93;;
31368;SDS011;18004;48.416;10.066;2023-04-30T04:17:57;5.85;;;4.30;;
31368;SDS011;18004;48.416;10.066;2023-04-30T04:20:23;6.53;;;4.57;;
31368;SDS011;18004;48.416;10.066;2023-04-30T04:22:49;6.85;;;4.63;;
31368;SDS011;18004;48.416;10.066;2023-04-30T04:25:15;6.88;;;4.57;;
31368;SDS011;18004;48.416;10.066;2023-04-30T04:27:42;9.18;;;5.57;;
31368;SDS011;18004;48.416;10.066;2023-04-30T04:30:08;7.00;;;4.75;;
31368;SDS011;18004;48.416;10.066;2023-04-30T04:32:34;7.30;;;5.07;;
31368;SDS011;18004;48.416;10.066;2023-04-30T04:35:11;7.78;;;5.03;;
31368;SDS011;18004;48.416;10.066;2023-04-30T04:37:37;7.25;;;4.65;;
31368;SDS011;18004;48.416;10.066;2023-04-30T04:40:03;8.07;;;4.78;;
31368;SDS011;18004;48.416;10.066;2023-04-30T04:42:29;8.07;;;4.60;;
31368;SDS011;18004;48.416;10.066;2023-04-30T04:44:56;12.35;;;6.18;;
31368;SDS011;18004;48.416;10.066;2023-04-30T04:47:22;8.80;;;5.15;;
31368;SDS011;18004;48.416;10.066;2023-04-30T04:49:48;12.35;;;5.72;;
31368;SDS011;18004;48.416;10.066;2023-04-30T04:52:14;8.82;;;4.47;;
31368;SDS011;18004;48.416;10.066;2023-04-30T04:54:40;8.40;;;5.50;;
31368;SDS011;18004;48.416;10.066;2023-04-30T04:57:05;8.57;;;5.82;;
31368;SDS011;18004;48.416;10.066;2023-04-30T04:59:31;8.23;;;6.03;;
31368;SDS011;18004;48.416;10.066;2023-04-30T05:01:57;10.60;;;5.35;;
31368;SDS011;18004;48.416;10.066;2023-04-30T05:04:23;10.05;;;6.13;;
31368;SDS011;18004;48.416;10.066;2023-04-30T05:06:48;13.07;;;6.65;;
31368;SDS011;18004;48.416;10.066;2023-04-30T05:09:14;19.75;;;10.73;;
31368;SDS011;18004;48.416;10.066;2023-04-30T05:11:40;11.75;;;7.10;;
31368;SDS011;18004;48.416;10.066;2023-04-30T05:14:06;10.05;;;5.53;;
31368;SDS011;18004;48.416;10.066;2023-04-30T05:16:32;12.95;;;5.95;;
31368;SDS011;18004;48.416;10.066;2023-04-30T05:18:58;8.02;;;5.10;;
31368;SDS011;18004;48.416;10.066;2023-04-30T05:21:23;8.13;;;4.80;;
31368;SDS011;18004;48.416;10.066;2023-04-30T05:23:53;12.60;;;5.40;;
31368;SDS011;18004;48.416;10.066;2023-04-30T05:26:19;11.65;;;6.47;;
31368;SDS011;18004;48.416;10.066;2023-04-30T05:28:45;11.60;;;5.75;;
31368;SDS011;18004;48.416;10.066;2023-04-30T05:31:10;8.35;;;5.47;;
31368;SDS011;18004;48.416;10.066;2023-04-30T05:33:36;12.25;;;5.80;;
31368;SDS011;18004;48.416;10.066;2023-04-30T05:36:02;7.03;;;4.82;;
31368;SDS011;18004;48.416;10.066;2023-04-30T05:38:28;8.73;;;5.55;;
31368;SDS011;18004;48.416;10.066;2023-04-30T05:40:53;9.88;;;5.80;;
31368;SDS011;18004;48.416;10.066;2023-04-30T05:43:19;10.93;;;5.57;;
31368;SDS011;18004;48.416;10.066;2023-04-30T05:45:45;8.45;;;5.88;;
31368;SDS011;18004;48.416;10.066;2023-04-30T05:48:11;9.52;;;5.90;;
31368;SDS011;18004;48.416;10.066;2023-04-30T05:50:36;10.55;;;5.63;;
31368;SDS011;18004;48.416;10.066;2023-04-30T05:53:02;8.23;;;5.30;;
31368;SDS011;18004;48.416;10.066;2023-04-30T05:55:28;11.98;;;6.05;;
31368;SDS011;18004;48.416;10.066;2023-04-30T05:57:54;11.05;;;6.22;;
31368;SDS011;18004;48.416;10.066;2023-04-30T06:00:19;7.57;;;5.60;;
31368;SDS011;18004;48.416;10.066;2023-04-30T06:02:45;9.10;;;6.13;;
31368;SDS011;18004;48.416;10.066;2023-04-30T06:05:11;8.20;;;5.70;;
31368;SDS011;18004;48.416;10.066;2023-04-30T06:07:37;13.15;;;6.47;;
31368;SDS011;18004;48.416;10.066;2023-04-30T06:10:03;5.50;;;3.63;;
31368;SDS011;18004;48.416;10.066;2023-04-30T06:12:29;9.98;;;5.65;;
31368;SDS011;18004;48.416;10.066;2023-04-30T06:14:55;7.95;;;5.57;;
31368;SDS011;18004;48.416;10.066;2023-04-30T06:17:21;10.98;;;5.68;;
31368;SDS011;18004;48.416;10.066;2023-04-30T06:19:47;6.53;;;4.75;;
31368;SDS011;18004;48.416;10.066;2023-04-30T06:22:13;14.32;;;5.25;;
31368;SDS011;18004;48.416;10.066;2023-04-30T06:24:38;10.15;;;5.55;;
31368;SDS011;18004;48.416;10.066;2023-04-30T06:27:04;10.75;;;5.72;;
31368;SDS011;18004;48.416;10.066;2023-04-30T06:29:30;11.57;;;6.22;;
31368;SDS011;18004;48.416;10.066;2023-04-30T06:31:56;7.82;;;5.22;;
31368;SDS011;18004;48.416;10.066;2023-04-30T06:34:22;7.75;;;5.78;;
31368;SDS011;18004;48.416;10.066;2023-04-30T06:36:47;8.93;;;4.72;;
31368;SDS011;18004;48.416;10.066;2023-04-30T06:39:14;8.27;;;4.93;;
31368;SDS011;18004;48.416;10.066;2023-04-30T06:41:40;6.25;;;4.75;;
31368;SDS011;18004;48.416;10.066;2023-04-30T06:44:07;11.43;;;5.25;;
31368;SDS011;18004;48.416;10.066;2023-04-30T06:46:33;7.32;;;5.22;;
31368;SDS011;18004;48.416;10.066;2023-04-30T06:48:59;7.10;;;4.75;;
31368;SDS011;18004;48.416;10.066;2023-04-30T06:51:25;7.50;;;5.05;;
31368;SDS011;18004;48.416;10.066;2023-04-30T06:53:51;8.65;;;4.78;;
31368;SDS011;18004;48.416;10.066;2023-04-30T06:56:17;8.85;;;4.78;;
31368;SDS011;18004;48.416;10.066;2023-04-30T06:58:43;8.68;;;4.45;;
31368;SDS011;18004;48.416;10.066;2023-04-30T07:01:09;14.52;;;4.97;;
31368;SDS011;18004;48.416;10.066;2023-04-30T07:03:35;6.82;;;4.22;;
31368;SDS011;18004;48.416;10.066;2023-04-30T07:06:00;9.55;;;4.15;;
31368;SDS011;18004;48.416;10.066;2023-04-30T07:08:26;8.07;;;4.38;;
31368;SDS011;18004;48.416;10.066;2023-04-30T07:10:52;6.80;;;4.13;;
31368;SDS011;18004;48.416;10.066;2023-04-30T07:13:18;6.78;;;4.15;;
31368;SDS011;18004;48.416;10.066;2023-04-30T07:15:44;5.78;;;3.78;;
31368;SDS011;18004;48.416;10.066;2023-04-30T07:18:09;6.47;;;4.18;;
31368;SDS011;18004;48.416;10.066;2023-04-30T07:20:35;6.50;;;4.40;;
31368;SDS011;18004;48.416;10.066;2023-04-30T07:23:01;5.38;;;3.55;;
31368;SDS011;18004;48.416;10.066;2023-04-30T07:25:27;11.38;;;4.05;;
31368;SDS011;18004;48.416;10.066;2023-04-30T07:27:53;5.18;;;3.67;;
31368;SDS011;18004;48.416;10.066;2023-04-30T07:30:19;5.88;;;4.10;;
31368;SDS011;18004;48.416;10.066;2023-04-30T07:32:46;3.22;;;2.60;;
31368;SDS011;18004;48.416;10.066;2023-04-30T07:35:12;5.32;;;3.75;;
31368;SDS011;18004;48.416;10.066;2023-04-30T07:37:39;3.90;;;2.75;;
31368;SDS011;18004;48.416;10.066;2023-04-30T07:40:05;7.07;;;3.58;;
31368;SDS011;18004;48.416;10.066;2023-04-30T07:42:37;7.22;;;3.28;;
31368;SDS011;18004;48.416;10.066;2023-04-30T07:45:06;5.00;;;3.40;;
31368;SDS011;18004;48.416;10.066;2023-04-30T07:47:32;5.72;;;2.97;;
31368;SDS011;18004;48.416;10.066;2023-04-30T07:49:58;4.47;;;3.47;;
31368;SDS011;18004;48.416;10.066;2023-04-30T07:52:24;6.38;;;3.25;;
31368;SDS011;18004;48.416;10.066;2023-04-30T07:54:50;5.68;;;3.17;;
31368;SDS011;18004;48.416;10.066;2023-04-30T07:57:16;4.05;;;3.10;;
31368;SDS011;18004;48.416;10.066;2023-04-30T07:59:42;6.10;;;4.43;;
31368;SDS011;18004;48.416;10.066;2023-04-30T08:02:07;6.85;;;3.83;;
31368;SDS011;18004;48.416;10.066;2023-04-30T08:04:33;4.53;;;3.42;;
31368;SDS011;18004;48.416;10.066;2023-04-30T08:06:59;5.22;;;3.42;;
31368;SDS011;18004;48.416;10.066;2023-04-30T08:09:26;6.53;;;3.42;;
31368;SDS011;18004;48.416;10.066;2023-04-30T08:11:52;4.07;;;3.42;;
31368;SDS011;18004;48.416;10.066;2023-04-30T08:14:18;4.38;;;3.17;;
31368;SDS011;18004;48.416;10.066;2023-04-30T08:16:45;5.72;;;3.35;;
31368;SDS011;18004;48.416;10.066;2023-04-30T08:19:11;4.05;;;2.95;;
31368;SDS011;18004;48.416;10.066;2023-04-30T08:21:37;5.43;;;3.30;;
31368;SDS011;18004;48.416;10.066;2023-04-30T08:24:03;4.50;;;3.20;;
31368;SDS011;18004;48.416;10.066;2023-04-30T08:26:29;5.10;;;3.03;;
31368;SDS011;18004;48.416;10.066;2023-04-30T08:28:55;4.65;;;2.20;;
31368;SDS011;18004;48.416;10.066;2023-04-30T08:31:21;4.05;;;3.13;;
31368;SDS011;18004;48.416;10.066;2023-04-30T08:33:47;3.13;;;2.83;;
31368;SDS011;18004;48.416;10.066;2023-04-30T08:36:12;2.83;;;2.50;;
31368;SDS011;18004;48.416;10.066;2023-04-30T08:38:39;4.88;;;3.30;;
31368;SDS011;18004;48.416;10.066;2023-04-30T08:41:08;4.45;;;3.03;;
31368;SDS011;18004;48.416;10.066;2023-04-30T08:43:37;3.78;;;2.60;;
31368;SDS011;18004;48.416;10.066;2023-04-30T08:46:04;3.60;;;2.67;;
31368;SDS011;18004;48.416;10.066;2023-04-30T08:48:30;3.78;;;2.53;;
31368;SDS011;18004;48.416;10.066;2023-04-30T08:51:03;3.25;;;2.42;;
31368;SDS011;18004;48.416;10.066;2023-04-30T08:53:29;3.63;;;2.80;;
31368;SDS011;18004;48.416;10.066;2023-04-30T08:55:58;3.70;;;2.38;;
31368;SDS011;18004;48.416;10.066;2023-04-30T08:58:24;4.05;;;2.65;;
31368;SDS011;18004;48.416;10.066;2023-04-30T09:00:50;5.15;;;2.65;;
31368;SDS011;18004;48.416;10.066;2023-04-30T09:03:16;3.60;;;2.60;;
31368;SDS011;18004;48.416;10.066;2023-04-30T09:05:41;5.43;;;2.60;;
31368;SDS011;18004;48.416;10.066;2023-04-30T09:08:07;3.47;;;2.00;;
31368;SDS011;18004;48.416;10.066;2023-04-30T09:10:33;7.40;;;2.53;;
31368;SDS011;18004;48.416;10.066;2023-04-30T09:13:01;4.40;;;1.98;;
31368;SDS011;18004;48.416;10.066;2023-04-30T09:15:27;1.92;;;1.73;;
31368;SDS011;18004;48.416;10.066;2023-04-30T09:18:10;2.60;;;1.85;;
31368;SDS011;18004;48.416;10.066;2023-04-30T09:23:56;3.38;;;2.13;;
31368;SDS011;18004;48.416;10.066;2023-04-30T09:26:34;2.03;;;1.40;;
31368;SDS011;18004;48.416;10.066;2023-04-30T09:29:02;3.00;;;1.58;;
31368;SDS011;18004;48.416;10.066;2023-04-30T09:31:35;3.55;;;1.92;;
31368;SDS011;18004;48.416;10.066;2023-04-30T09:34:02;2.20;;;1.55;;
31368;SDS011;18004;48.416;10.066;2023-04-30T09:36:29;2.00;;;1.75;;
31368;SDS011;18004;48.416;10.066;2023-04-30T09:38:56;2.60;;;1.63;;
31368;SDS011;18004;48.416;10.066;2023-04-30T09:41:31;4.85;;;2.30;;
31368;SDS011;18004;48.416;10.066;2023-04-30T09:43:57;3.08;;;1.50;;
31368;SDS011;18004;48.416;10.066;2023-04-30T09:46:30;1.92;;;1.40;;
31368;SDS011;18004;48.416;10.066;2023-04-30T09:49:03;1.88;;;1.42;;
31368;SDS011;18004;48.416;10.066;2023-04-30T09:51:30;3.38;;;1.42;;
31368;SDS011;18004;48.416;10.066;2023-04-30T09:53:56;2.13;;;1.42;;
31368;SDS011;18004;48.416;10.066;2023-04-30T09:56:23;6.72;;;1.20;;
31368;SDS011;18004;48.416;10.066;2023-04-30T09:58:51;2.03;;;1.10;;
31368;SDS011;18004;48.416;10.066;2023-04-30T10:01:18;5.00;;;1.38;;
31368;SDS011;18004;48.416;10.066;2023-04-30T10:03:45;1.77;;;1.15;;
31368;SDS011;18004;48.416;10.066;2023-04-30T10:06:12;3.35;;;1.48;;
31368;SDS011;18004;48.416;10.066;2023-04-30T10:08:40;2.05;;;1.30;;
31368;SDS011;18004;48.416;10.066;2023-04-30T10:11:12;1.65;;;1.10;;
31368;SDS011;18004;48.416;10.066;2023-04-30T10:16:22;1.38;;;1.05;;
31368;SDS011;18004;48.416;10.066;2023-04-30T10:18:49;2.35;;;1.65;;
31368;SDS011;18004;48.416;10.066;2023-04-30T10:21:16;1.63;;;1.45;;
31368;SDS011;18004;48.416;10.066;2023-04-30T10:23:45;1.88;;;1.38;;
31368;SDS011;18004;48.416;10.066;2023-04-30T10:26:12;1.50;;;1.35;;
31368;SDS011;18004;48.416;10.066;2023-04-30T10:28:41;1.73;;;1.30;;
31368;SDS011;18004;48.416;10.066;2023-04-30T10:31:07;2.70;;;1.30;;
31368;SDS011;18004;48.416;10.066;2023-04-30T10:36:27;1.63;;;1.40;;
31368;SDS011;18004;48.416;10.066;2023-04-30T10:39:01;2.35;;;1.42;;
31368;SDS011;18004;48.416;10.066;2023-04-30T10:41:28;2.78;;;1.60;;
31368;SDS011;18004;48.416;10.066;2023-04-30T10:43:55;1.88;;;1.55;;
31368;SDS011;18004;48.416;10.066;2023-04-30T10:46:24;1.98;;;1.60;;
31368;SDS011;18004;48.416;10.066;2023-04-30T10:48:56;2.70;;;1.77;;
31368;SDS011;18004;48.416;10.066;2023-04-30T10:51:22;1.83;;;1.52;;
31368;SDS011;18004;48.416;10.066;2023-04-30T10:53:49;1.35;;;1.23;;
31368;SDS011;18004;48.416;10.066;2023-04-30T10:56:29;4.43;;;2.22;;
31368;SDS011;18004;48.416;10.066;2023-04-30T10:58:59;1.33;;;1.23;;
31368;SDS011;18004;48.416;10.066;2023-04-30T11:01:26;1.50;;;1.17;;
31368;SDS011;18004;48.416;10.066;2023-04-30T11:09:40;5.82;;;1.30;;
31368;SDS011;18004;48.416;10.066;2023-04-30T11:12:18;1.92;;;1.10;;
31368;SDS011;18004;48.416;10.066;2023-04-30T11:14:52;2.45;;;1.27;;
31368;SDS011;18004;48.416;10.066;2023-04-30T11:17:31;1.58;;;1.17;;
31368;SDS011;18004;48.416;10.066;2023-04-30T11:20:00;2.55;;;1.65;;
31368;SDS011;18004;48.416;10.066;2023-04-30T11:22:26;2.63;;;1.75;;
31368;SDS011;18004;48.416;10.066;2023-04-30T11:27:35;2.22;;;1.45;;
31368;SDS011;18004;48.416;10.066;2023-04-30T11:30:03;2.17;;;1.58;;
31368;SDS011;18004;48.416;10.066;2023-04-30T11:32:34;3.47;;;1.23;;
31368;SDS011;18004;48.416;10.066;2023-04-30T11:35:02;2.22;;;1.52;;
31368;SDS011;18004;48.416;10.066;2023-04-30T11:40:00;1.30;;;1.13;;
31368;SDS011;18004;48.416;10.066;2023-04-30T11:42:28;2.53;;;1.08;;
31368;SDS011;18004;48.416;10.066;2023-04-30T11:47:41;1.88;;;1.20;;
31368;SDS011;18004;48.416;10.066;2023-04-30T11:50:11;1.45;;;1.02;;
31368;SDS011;18004;48.416;10.066;2023-04-30T11:52:38;2.63;;;1.05;;
31368;SDS011;18004;48.416;10.066;2023-04-30T11:55:26;2.60;;;1.13;;
31368;SDS011;18004;48.416;10.066;2023-04-30T11:57:55;0.90;;;0.80;;
31368;SDS011;18004;48.416;10.066;2023-04-30T12:00:27;1.08;;;0.80;;
31368;SDS011;18004;48.416;10.066;2023-04-30T12:02:54;2.05;;;1.52;;
31368;SDS011;18004;48.416;10.066;2023-04-30T12:05:21;1.08;;;0.90;;
31368;SDS011;18004;48.416;10.066;2023-04-30T12:08:02;1.17;;;0.95;;
31368;SDS011;18004;48.416;10.066;2023-04-30T12:10:31;1.65;;;1.10;;
31368;SDS011;18004;48.416;10.066;2023-04-30T12:12:57;2.88;;;0.98;;
31368;SDS011;18004;48.416;10.066;2023-04-30T12:15:23;1.65;;;0.98;;
31368;SDS011;18004;48.416;10.066;2023-04-30T12:17:56;1.48;;;0.88;;
31368;SDS011;18004;48.416;10.066;2023-04-30T12:20:27;1.45;;;0.90;;
31368;SDS011;18004;48.416;10.066;2023-04-30T12:22:55;1.00;;;0.88;;
31368;SDS011;18004;48.416;10.066;2023-04-30T12:25:22;0.98;;;0.80;;
31368;SDS011;18004;48.416;10.066;2023-04-30T12:27:51;1.90;;;0.88;;
31368;SDS011;18004;48.416;10.066;2023-04-30T12:30:18;1.60;;;0.90;;
31368;SDS011;18004;48.416;10.066;2023-04-30T12:32:51;1.25;;;1.00;;
31368;SDS011;18004;48.416;10.066;2023-04-30T12:35:21;1.90;;;1.30;;
31368;SDS011;18004;48.416;10.066;2023-04-30T12:37:50;2.08;;;1.30;;
31368;SDS011;18004;48.416;10.066;2023-04-30T12:40:17;1.90;;;1.00;;
31368;SDS011;18004;48.416;10.066;2023-04-30T12:42:50;0.82;;;0.80;;
31368;SDS011;18004;48.416;10.066;2023-04-30T12:50:33;2.83;;;1.40;;
31368;SDS011;18004;48.416;10.066;2023-04-30T12:53:03;2.83;;;1.20;;
31368;SDS011;18004;48.416;10.066;2023-04-30T12:55:29;2.63;;;1.10;;
31368;SDS011;18004;48.416;10.066;2023-04-30T12:58:29;3.78;;;1.25;;
31368;SDS011;18004;48.416;10.066;2023-04-30T13:00:48;1.65;;;1.10;;
31368;SDS011;18004;48.416;10.066;2023-04-30T13:03:15;2.28;;;1.35;;
31368;SDS011;18004;48.416;10.066;2023-04-30T13:05:46;1.45;;;1.20;;
31368;SDS011;18004;48.416;10.066;2023-04-30T13:08:13;1.92;;;1.27;;
31368;SDS011;18004;48.416;10.066;2023-04-30T13:10:39;2.95;;;1.42;;
31368;SDS011;18004;48.416;10.066;2023-04-30T13:13:05;1.73;;;1.08;;
31368;SDS011;18004;48.416;10.066;2023-04-30T13:15:31;1.77;;;1.55;;
31368;SDS011;18004;48.416;10.066;2023-04-30T13:17:57;2.65;;;1.52;;
31368;SDS011;18004;48.416;10.066;2023-04-30T13:20:23;1.50;;;1.20;;
31368;SDS011;18004;48.416;10.066;2023-04-30T13:22:51;1.50;;;1.10;;
31368;SDS011;18004;48.416;10.066;2023-04-30T13:25:18;1.50;;;1.05;;
31368;SDS011;18004;48.416;10.066;2023-04-30T13:27:44;2.28;;;1.17;;
31368;SDS011;18004;48.416;10.066;2023-04-30T13:30:10;1.90;;;1.38;;
31368;SDS011;18004;48.416;10.066;2023-04-30T13:32:36;0.90;;;0.85;;
31368;SDS011;18004;48.416;10.066;2023-04-30T13:35:02;1.80;;;1.30;;
31368;SDS011;18004;48.416;10.066;2023-04-30T13:37:28;1.40;;;1.00;;
31368;SDS011;18004;48.416;10.066;2023-04-30T13:39:55;2.03;;;1.13;;
31368;SDS011;18004;48.416;10.066;2023-04-30T13:42:22;1.15;;;1.05;;
31368;SDS011;18004;48.416;10.066;2023-04-30T13:44:49;2.20;;;1.48;;
31368;SDS011;18004;48.416;10.066;2023-04-30T13:47:16;2.15;;;1.15;;
31368;SDS011;18004;48.416;10.066;2023-04-30T13:49:42;1.48;;;1.13;;
31368;SDS011;18004;48.416;10.066;2023-04-30T13:52:08;1.17;;;0.80;;
31368;SDS011;18004;48.416;10.066;2023-04-30T13:54:34;1.15;;;0.90;;
31368;SDS011;18004;48.416;10.066;2023-04-30T13:57:01;2.10;;;1.20;;
31368;SDS011;18004;48.416;10.066;2023-04-30T13:59:27;1.55;;;1.17;;
31368;SDS011;18004;48.416;10.066;2023-04-30T14:01:53;3.53;;;0.90;;
31368;SDS011;18004;48.416;10.066;2023-04-30T14:04:22;0.95;;;0.88;;
31368;SDS011;18004;48.416;10.066;2023-04-30T14:06:48;1.52;;;1.05;;
31368;SDS011;18004;48.416;10.066;2023-04-30T14:09:15;1.48;;;0.77;;
31368;SDS011;18004;48.416;10.066;2023-04-30T14:11:42;2.22;;;1.65;;
31368;SDS011;18004;48.416;10.066;2023-04-30T14:14:08;2.33;;;1.00;;
31368;SDS011;18004;48.416;10.066;2023-04-30T14:16:33;2.10;;;0.93;;
31368;SDS011;18004;48.416;10.066;2023-04-30T14:18:59;1.30;;;1.10;;
31368;SDS011;18004;48.416;10.066;2023-04-30T14:21:25;1.40;;;1.10;;
31368;SDS011;18004;48.416;10.066;2023-04-30T14:23:52;2.17;;;0.95;;
31368;SDS011;18004;48.416;10.066;2023-04-30T14:26:19;1.10;;;0.93;;
31368;SDS011;18004;48.416;10.066;2023-04-30T14:28:46;1.10;;;1.00;;
31368;SDS011;18004;48.416;10.066;2023-04-30T14:31:12;1.05;;;0.90;;
31368;SDS011;18004;48.416;10.066;2023-04-30T14:33:38;0.93;;;0.90;;
31368;SDS011;18004;48.416;10.066;2023-04-30T14:36:04;0.90;;;0.80;;
31368;SDS011;18004;48.416;10.066;2023-04-30T14:38:31;1.20;;;0.80;;
31368;SDS011;18004;48.416;10.066;2023-04-30T14:40:56;2.88;;;0.80;;
31368;SDS011;18004;48.416;10.066;2023-04-30T14:43:22;1.98;;;1.13;;
31368;SDS011;18004;48.416;10.066;2023-04-30T14:45:48;1.73;;;0.90;;
31368;SDS011;18004;48.416;10.066;2023-04-30T14:48:14;1.30;;;1.08;;
31368;SDS011;18004;48.416;10.066;2023-04-30T14:50:40;1.70;;;0.93;;
31368;SDS011;18004;48.416;10.066;2023-04-30T14:53:07;0.70;;;0.70;;
31368;SDS011;18004;48.416;10.066;2023-04-30T14:55:34;0.80;;;0.80;;
31368;SDS011;18004;48.416;10.066;2023-04-30T14:58:00;1.33;;;0.93;;
31368;SDS011;18004;48.416;10.066;2023-04-30T15:00:25;2.45;;;1.17;;
31368;SDS011;18004;48.416;10.066;2023-04-30T15:02:52;1.13;;;0.93;;
31368;SDS011;18004;48.416;10.066;2023-04-30T15:05:20;1.58;;;0.70;;
31368;SDS011;18004;48.416;10.066;2023-04-30T15:07:46;0.40;;;0.40;;
31368;SDS011;18004;48.416;10.066;2023-04-30T15:10:12;0.85;;;0.70;;
31368;SDS011;18004;48.416;10.066;2023-04-30T15:12:37;0.68;;;0.68;;
31368;SDS011;18004;48.416;10.066;2023-04-30T15:15:04;1.05;;;0.68;;
31368;SDS011;18004;48.416;10.066;2023-04-30T15:17:31;0.70;;;0.70;;
31368;SDS011;18004;48.416;10.066;2023-04-30T15:20:01;1.10;;;0.70;;